Time;durP1;ratioP1;P1;durP2;ratioP2;P2;SDS_P1;SDS_P2;PMS_P1;PMS_P2;Temp;Humidity;BMP_temperature;BMP_pressure;BME280_temperature;BME280_humidity;BME280_pressure;Samples;Min_cycle;Max_cycle;Signal;HPM_P1;HPM_P2
2023/04/11 00:00:55;;;;;;;5.55;1.20;;;11.90;99.90;;;;;;4993268;28;20561;-89
2023/04/11 00:03:21;;;;;;;5.43;1.20;;;11.80;99.90;;;;;;4987434;28;20631;-87
2023/04/11 00:05:47;;;;;;;9.63;1.40;;;11.80;99.90;;;;;;4977087;28;20025;-86
2023/04/11 00:08:12;;;;;;;6.07;1.30;;;11.80;99.90;;;;;;4981613;28;20521;-87
2023/04/11 00:10:38;;;;;;;6.57;1.50;;;11.80;99.90;;;;;;4982775;28;20739;-86
2023/04/11 00:13:06;;;;;;;5.87;1.30;;;11.80;99.90;;;;;;5008531;28;20017;-86
2023/04/11 00:15:32;;;;;;;10.45;1.77;;;11.70;99.90;;;;;;5021544;28;20066;-86
2023/04/11 00:17:57;;;;;;;7.28;1.20;;;11.70;99.90;;;;;;4981247;28;20021;-86
2023/04/11 00:20:23;;;;;;;9.03;1.30;;;11.70;99.90;;;;;;5004484;28;20060;-86
2023/04/11 00:22:52;;;;;;;8.38;1.40;;;11.60;99.90;;;;;;5000868;28;20112;-85
2023/04/11 00:25:19;;;;;;;7.73;1.70;;;11.60;99.90;;;;;;5010499;28;20048;-86
2023/04/11 00:27:44;;;;;;;7.40;1.55;;;11.60;99.90;;;;;;4995801;28;20062;-85
2023/04/11 00:30:10;;;;;;;8.65;1.35;;;11.60;99.90;;;;;;5023276;28;20048;-87
2023/04/11 00:32:36;;;;;;;5.70;1.50;;;11.50;99.90;;;;;;5012235;28;20025;-88
2023/04/11 00:35:02;;;;;;;8.70;1.65;;;11.50;99.90;;;;;;4986447;28;20024;-85
2023/04/11 00:37:27;;;;;;;8.90;1.40;;;11.50;99.90;;;;;;5010343;28;20027;-87
2023/04/11 00:39:54;;;;;;;8.68;1.60;;;11.50;99.90;;;;;;4987745;28;20223;-86
2023/04/11 00:42:20;;;;;;;9.25;1.48;;;11.50;99.90;;;;;;5007985;28;20017;-86
2023/04/11 00:44:46;;;;;;;5.73;1.17;;;11.50;99.90;;;;;;4979821;28;20170;-90
2023/04/11 00:47:12;;;;;;;7.50;1.55;;;11.50;99.90;;;;;;4997648;28;20408;-87
2023/04/11 00:49:38;;;;;;;5.65;1.42;;;11.50;99.90;;;;;;4984518;28;20021;-86
2023/04/11 00:52:05;;;;;;;9.73;1.67;;;11.50;99.90;;;;;;5025732;28;20725;-87
2023/04/11 00:54:32;;;;;;;8.27;1.60;;;11.50;99.90;;;;;;5009456;28;20143;-86
2023/04/11 00:57:00;;;;;;;6.93;1.40;;;11.50;99.90;;;;;;5004358;28;20252;-87
2023/04/11 00:59:27;;;;;;;8.23;1.40;;;11.50;99.90;;;;;;5002108;28;20013;-86
2023/04/11 01:01:53;;;;;;;7.80;1.63;;;11.50;99.90;;;;;;5021429;28;20016;-87
2023/04/11 01:04:20;;;;;;;8.93;1.53;;;11.50;99.90;;;;;;5025816;28;20017;-87
2023/04/11 01:06:51;;;;;;;6.32;1.40;;;11.50;99.90;;;;;;4966233;28;20517;-86
2023/04/11 01:09:20;;;;;;;5.18;1.10;;;11.40;99.90;;;;;;5011668;28;20021;-87
2023/04/11 01:11:48;;;;;;;5.80;1.20;;;11.40;99.90;;;;;;5014223;28;20025;-86
2023/04/11 01:14:17;;;;;;;7.78;1.25;;;11.40;99.90;;;;;;4998949;28;20021;-86
2023/04/11 01:16:46;;;;;;;10.67;1.40;;;11.40;99.90;;;;;;4992784;28;20021;-86
2023/04/11 01:19:17;;;;;;;7.55;1.17;;;11.30;99.90;;;;;;4972603;28;20478;-86
2023/04/11 01:21:43;;;;;;;7.30;1.33;;;11.30;99.90;;;;;;4954481;28;20045;-86
2023/04/11 01:24:10;;;;;;;8.95;1.40;;;11.30;99.90;;;;;;5008820;28;20020;-88
2023/04/11 01:26:36;;;;;;;7.43;1.00;;;11.30;99.90;;;;;;4987263;28;20480;-86
2023/04/11 01:29:02;;;;;;;7.67;1.20;;;11.30;99.90;;;;;;4997138;28;20227;-84
2023/04/11 01:31:28;;;;;;;5.93;1.05;;;11.20;99.90;;;;;;4996734;28;20053;-84
2023/04/11 01:33:54;;;;;;;6.70;1.20;;;11.20;99.90;;;;;;5005843;28;20135;-84
2023/04/11 01:36:20;;;;;;;7.60;1.27;;;11.20;99.90;;;;;;4989506;28;20108;-85
2023/04/11 01:38:46;;;;;;;5.03;1.20;;;11.20;99.90;;;;;;4981664;28;20318;-87
2023/04/11 01:41:13;;;;;;;8.90;1.53;;;11.20;99.90;;;;;;5010471;28;20024;-85
2023/04/11 01:43:39;;;;;;;9.98;1.17;;;11.20;99.90;;;;;;5007810;28;20020;-88
2023/04/11 01:46:06;;;;;;;7.63;1.20;;;11.30;99.90;;;;;;5002188;28;20468;-83
2023/04/11 01:48:35;;;;;;;11.05;1.95;;;11.30;99.90;;;;;;5026680;28;20025;-85
2023/04/11 01:51:01;;;;;;;7.27;1.30;;;11.30;99.90;;;;;;4980782;28;20283;-86
2023/04/11 01:53:27;;;;;;;8.13;1.58;;;11.30;99.90;;;;;;5004523;28;20016;-84
2023/04/11 01:55:52;;;;;;;4.80;1.10;;;11.30;99.90;;;;;;5000558;28;20262;-83
2023/04/11 01:58:18;;;;;;;7.90;1.38;;;11.30;99.90;;;;;;5024086;28;20063;-84
2023/04/11 02:00:44;;;;;;;6.67;1.03;;;11.30;99.90;;;;;;4972463;28;20048;-85
2023/04/11 02:03:10;;;;;;;6.88;1.15;;;11.30;99.90;;;;;;5006029;28;20107;-84
2023/04/11 02:05:35;;;;;;;10.67;1.70;;;11.30;99.90;;;;;;5013579;28;20033;-85
2023/04/11 02:08:01;;;;;;;4.75;1.00;;;11.30;99.90;;;;;;4992477;28;20505;-85
2023/04/11 02:10:26;;;;;;;7.37;1.20;;;11.30;99.90;;;;;;4989238;28;20021;-86
2023/04/11 02:12:52;;;;;;;6.72;1.40;;;11.20;99.90;;;;;;5000169;28;20220;-85
2023/04/11 02:15:18;;;;;;;4.80;0.83;;;11.20;99.90;;;;;;5024380;28;20021;-84
2023/04/11 02:17:43;;;;;;;5.22;1.20;;;11.10;99.90;;;;;;4993241;28;20430;-85
2023/04/11 02:20:13;;;;;;;6.57;1.30;;;11.10;99.90;;;;;;5004598;28;20009;-87
2023/04/11 02:22:39;;;;;;;8.73;1.40;;;11.10;99.90;;;;;;4982933;28;20359;-84
2023/04/11 02:25:06;;;;;;;5.57;1.60;;;11.10;99.90;;;;;;4987403;28;20442;-84
2023/04/11 02:27:32;;;;;;;7.53;1.30;;;11.10;99.90;;;;;;4989949;28;20526;-85
2023/04/11 02:29:59;;;;;;;5.90;0.97;;;11.00;99.90;;;;;;5001988;28;20583;-87
2023/04/11 02:32:26;;;;;;;7.28;1.17;;;11.00;99.90;;;;;;5004213;28;20533;-84
2023/04/11 02:34:52;;;;;;;7.40;1.77;;;11.00;99.90;;;;;;4993096;28;20664;-86
2023/04/11 02:37:18;;;;;;;5.60;1.13;;;11.00;99.90;;;;;;5010939;28;20145;-87
2023/04/11 02:39:44;;;;;;;4.83;0.90;;;10.90;99.90;;;;;;4984308;28;20050;-85
2023/04/11 02:42:12;;;;;;;6.22;1.20;;;10.90;99.90;;;;;;4996031;28;20086;-85
2023/04/11 02:44:37;;;;;;;4.83;1.33;;;10.90;99.90;;;;;;4994367;28;20021;-84
2023/04/11 02:47:03;;;;;;;5.25;1.23;;;10.90;99.90;;;;;;5002268;28;20434;-85
2023/04/11 02:49:29;;;;;;;6.70;1.13;;;10.90;99.90;;;;;;5009967;28;20017;-84
2023/04/11 02:51:55;;;;;;;6.68;1.20;;;10.90;99.90;;;;;;4994538;28;20560;-86
2023/04/11 02:54:20;;;;;;;6.20;1.10;;;10.90;99.90;;;;;;4985934;28;20102;-83
2023/04/11 02:56:46;;;;;;;6.53;1.10;;;10.80;99.90;;;;;;4995031;28;20993;-85
2023/04/11 02:59:11;;;;;;;6.60;1.00;;;10.80;99.90;;;;;;5016704;28;20020;-86
2023/04/11 03:01:37;;;;;;;6.10;1.10;;;10.80;99.90;;;;;;4993718;28;20029;-87
2023/04/11 03:04:03;;;;;;;3.53;1.10;;;10.80;99.90;;;;;;5020644;28;20353;-85
2023/04/11 03:06:28;;;;;;;7.57;1.10;;;10.80;99.90;;;;;;5009384;28;20013;-84
2023/04/11 03:08:54;;;;;;;4.67;1.03;;;10.70;99.90;;;;;;4998795;28;20508;-86
2023/04/11 03:11:20;;;;;;;6.82;1.23;;;10.80;99.90;;;;;;4988908;28;20385;-85
2023/04/11 03:13:46;;;;;;;6.28;1.20;;;10.70;99.90;;;;;;4992751;28;20016;-85
2023/04/11 03:16:14;;;;;;;5.67;1.60;;;10.70;99.90;;;;;;4998582;28;20013;-84
2023/04/11 03:18:40;;;;;;;6.72;1.13;;;10.70;99.90;;;;;;5003174;28;20097;-84
2023/04/11 03:21:10;;;;;;;8.60;1.53;;;10.70;99.90;;;;;;5006010;28;20074;-85
2023/04/11 03:23:37;;;;;;;5.43;1.10;;;10.70;99.90;;;;;;4994361;28;20048;-86
2023/04/11 03:26:04;;;;;;;4.43;0.90;;;10.70;99.90;;;;;;4991156;28;20039;-85
2023/04/11 03:28:30;;;;;;;8.88;1.38;;;10.60;99.90;;;;;;5010524;28;20029;-85
2023/04/11 03:30:55;;;;;;;6.93;1.27;;;10.60;99.90;;;;;;5018902;28;20108;-84
2023/04/11 03:33:21;;;;;;;6.18;1.23;;;10.60;99.90;;;;;;4987118;28;20013;-84
2023/04/11 03:35:47;;;;;;;5.10;1.00;;;10.50;99.90;;;;;;5010823;28;20021;-85
2023/04/11 03:38:12;;;;;;;5.33;1.00;;;10.50;99.90;;;;;;5015982;28;20129;-86
2023/04/11 03:40:38;;;;;;;10.82;1.42;;;10.50;99.90;;;;;;4979251;28;20508;-83
2023/04/11 03:43:04;;;;;;;4.80;0.97;;;10.50;99.90;;;;;;5003035;28;20028;-84
2023/04/11 03:45:30;;;;;;;4.38;1.10;;;10.50;99.90;;;;;;5007910;28;20028;-84
2023/04/11 03:47:55;;;;;;;5.10;1.30;;;10.50;99.90;;;;;;5016944;28;20702;-85
2023/04/11 03:50:21;;;;;;;7.07;1.17;;;10.50;99.90;;;;;;5024658;28;20119;-83
2023/04/11 03:52:47;;;;;;;6.15;1.23;;;10.40;99.90;;;;;;5012089;28;20028;-84
2023/04/11 03:55:12;;;;;;;5.07;1.00;;;10.50;99.90;;;;;;5020999;28;20017;-83
2023/04/11 03:57:38;;;;;;;7.47;1.13;;;10.40;99.90;;;;;;5008375;28;20024;-84
2023/04/11 04:00:07;;;;;;;7.30;1.20;;;10.40;99.90;;;;;;5022544;28;20013;-87
2023/04/11 04:02:33;;;;;;;6.85;1.13;;;10.40;99.90;;;;;;4977247;28;20017;-86
2023/04/11 04:04:58;;;;;;;5.20;1.30;;;10.40;99.90;;;;;;5004265;28;20383;-84
2023/04/11 04:07:24;;;;;;;5.80;1.00;;;10.40;99.90;;;;;;5000327;28;20009;-84
2023/04/11 04:09:51;;;;;;;5.07;1.17;;;10.40;99.90;;;;;;5005621;28;20330;-83
2023/04/11 04:12:17;;;;;;;8.27;1.10;;;10.40;99.90;;;;;;4993007;28;20419;-83
2023/04/11 04:14:44;;;;;;;3.58;0.90;;;10.50;99.90;;;;;;5021911;28;20513;-86
2023/04/11 04:17:12;;;;;;;5.30;1.42;;;10.40;99.90;;;;;;4984115;28;20021;-87
2023/04/11 04:19:38;;;;;;;5.63;0.95;;;10.40;99.90;;;;;;4998892;28;20017;-85
2023/04/11 04:22:04;;;;;;;4.00;0.80;;;10.40;99.90;;;;;;4997695;28;20538;-86
2023/04/11 04:24:30;;;;;;;4.35;0.85;;;10.40;99.90;;;;;;5010097;28;20021;-85
2023/04/11 04:26:59;;;;;;;4.32;0.90;;;10.40;99.90;;;;;;4986997;28;20032;-86
2023/04/11 04:29:32;;;;;;;4.95;1.20;;;10.30;99.90;;;;;;5002126;28;20041;-86
2023/04/11 04:32:00;;;;;;;7.15;0.80;;;10.30;99.90;;;;;;5000275;28;20585;-84
2023/04/11 04:34:27;;;;;;;5.03;1.20;;;10.30;99.90;;;;;;5023084;28;20021;-85
2023/04/11 04:36:58;;;;;;;3.85;0.73;;;10.20;99.90;;;;;;5020816;28;20031;-86
2023/04/11 04:39:24;;;;;;;6.05;1.08;;;10.20;99.90;;;;;;4984590;28;20013;-84
2023/04/11 04:41:56;;;;;;;7.43;1.13;;;10.20;99.90;;;;;;5009047;28;20033;-85
2023/04/11 04:44:23;;;;;;;3.85;0.90;;;10.20;99.90;;;;;;4981541;28;20675;-85
2023/04/11 04:46:53;;;;;;;6.80;1.10;;;10.10;99.90;;;;;;4982292;28;20024;-86
2023/04/11 04:49:19;;;;;;;5.30;0.90;;;10.10;99.90;;;;;;5020562;28;20036;-84
2023/04/11 04:51:45;;;;;;;5.88;1.15;;;10.10;99.90;;;;;;4989606;28;20120;-84
2023/04/11 04:54:11;;;;;;;9.20;1.20;;;10.10;99.90;;;;;;5024159;28;20040;-84
2023/04/11 04:56:37;;;;;;;5.00;0.80;;;10.00;99.90;;;;;;5010732;28;20586;-86
2023/04/11 04:59:03;;;;;;;6.68;1.52;;;10.00;99.90;;;;;;5010304;28;20028;-84
2023/04/11 05:01:28;;;;;;;5.70;0.90;;;10.00;99.90;;;;;;4994761;28;20774;-84
2023/04/11 05:03:57;;;;;;;4.22;1.13;;;9.90;99.90;;;;;;5010587;28;20027;-84
2023/04/11 05:06:28;;;;;;;2.90;0.80;;;10.00;99.90;;;;;;4981073;28;22166;-85
2023/04/11 05:08:57;;;;;;;4.97;1.00;;;9.90;99.90;;;;;;4985246;28;20104;-84
2023/04/11 05:11:25;;;;;;;6.38;1.33;;;9.90;99.90;;;;;;5011696;28;20152;-86
2023/04/11 05:13:51;;;;;;;6.75;1.42;;;9.90;99.90;;;;;;4980859;28;20013;-88
2023/04/11 05:16:17;;;;;;;4.88;0.98;;;9.90;99.90;;;;;;4990128;28;20303;-85
2023/04/11 05:18:44;;;;;;;5.03;1.02;;;9.90;99.90;;;;;;5000665;28;20024;-84
2023/04/11 05:21:10;;;;;;;3.60;1.20;;;9.90;99.90;;;;;;4985159;28;20033;-85
2023/04/11 05:23:36;;;;;;;3.38;0.90;;;9.80;99.90;;;;;;4988986;28;20457;-85
2023/04/11 05:26:02;;;;;;;4.30;1.10;;;9.80;99.90;;;;;;5007801;28;20196;-85
2023/04/11 05:28:30;;;;;;;5.45;1.25;;;9.90;99.90;;;;;;5005588;28;20460;-84
2023/04/11 05:30:55;;;;;;;5.13;0.90;;;9.80;99.90;;;;;;4985463;28;20041;-86
2023/04/11 05:33:22;;;;;;;6.95;0.90;;;9.90;99.90;;;;;;5001326;28;20464;-84
2023/04/11 05:35:48;;;;;;;4.22;0.82;;;9.80;99.90;;;;;;5021555;28;20478;-86
2023/04/11 05:38:14;;;;;;;4.53;1.03;;;9.90;99.90;;;;;;4988186;28;20269;-86
2023/04/11 05:40:39;;;;;;;9.85;1.05;;;9.90;99.90;;;;;;4996558;28;20048;-85
2023/04/11 05:43:05;;;;;;;6.80;1.37;;;9.80;99.90;;;;;;5021807;28;20278;-84
2023/04/11 05:45:31;;;;;;;7.20;1.00;;;9.90;99.90;;;;;;5027438;28;20021;-85
2023/04/11 05:47:56;;;;;;;4.63;0.90;;;9.90;99.90;;;;;;4968378;28;20029;-85
2023/04/11 05:50:22;;;;;;;6.60;1.02;;;9.90;99.90;;;;;;4980997;28;20028;-85
2023/04/11 05:52:48;;;;;;;3.03;0.80;;;9.90;99.90;;;;;;5010113;28;20017;-84
2023/04/11 05:55:14;;;;;;;6.75;1.13;;;9.90;99.90;;;;;;4995046;28;20122;-85
2023/04/11 05:57:39;;;;;;;4.73;1.13;;;9.90;99.90;;;;;;5010693;28;20329;-85
2023/04/11 06:00:11;;;;;;;5.30;1.08;;;10.00;99.90;;;;;;5000217;28;20022;-83
2023/04/11 06:02:38;;;;;;;4.10;0.90;;;10.00;99.90;;;;;;4988866;28;20032;-86
2023/04/11 06:05:04;;;;;;;4.83;1.20;;;10.10;99.90;;;;;;4990607;28;20041;-85
2023/04/11 06:07:31;;;;;;;4.78;0.77;;;10.10;99.90;;;;;;5002772;28;20324;-85
2023/04/11 06:09:57;;;;;;;7.95;1.35;;;10.10;99.90;;;;;;4992783;28;20687;-84
2023/04/11 06:12:23;;;;;;;7.65;1.70;;;10.20;99.90;;;;;;4982495;28;20051;-85
2023/04/11 06:14:48;;;;;;;6.23;1.13;;;10.20;99.90;;;;;;4988554;28;20017;-84
2023/04/11 06:17:14;;;;;;;5.38;1.13;;;10.20;99.90;;;;;;4983245;28;20414;-86
2023/04/11 06:19:40;;;;;;;3.00;0.80;;;10.30;99.90;;;;;;4994294;28;20012;-84
2023/04/11 06:22:06;;;;;;;4.35;0.77;;;10.30;99.90;;;;;;5007118;28;20701;-85
2023/04/11 06:24:37;;;;;;;5.30;1.00;;;10.30;99.90;;;;;;5018333;28;20025;-84
2023/04/11 06:27:02;;;;;;;6.22;1.02;;;10.40;99.90;;;;;;4982635;28;20025;-87
2023/04/11 06:29:29;;;;;;;3.95;0.90;;;10.40;99.90;;;;;;5010849;28;20091;-83
2023/04/11 06:31:54;;;;;;;3.50;1.00;;;10.50;99.90;;;;;;5006271;28;20227;-84
2023/04/11 06:34:20;;;;;;;6.30;0.87;;;10.60;99.90;;;;;;4975015;28;20041;-85
2023/04/11 06:36:48;;;;;;;4.70;1.33;;;10.70;99.90;;;;;;5010019;28;20107;-88
2023/04/11 06:39:15;;;;;;;5.53;1.23;;;10.80;99.90;;;;;;4986521;28;20060;-86
2023/04/11 06:41:42;;;;;;;4.90;0.93;;;10.80;99.90;;;;;;4992418;28;20472;-84
2023/04/11 06:44:07;;;;;;;3.55;0.90;;;10.90;99.90;;;;;;5005399;28;20029;-85
2023/04/11 06:46:33;;;;;;;4.45;1.30;;;11.00;99.90;;;;;;4985735;28;20017;-85
2023/04/11 06:48:59;;;;;;;5.43;1.10;;;11.10;99.90;;;;;;4999735;28;20104;-84
2023/04/11 06:51:25;;;;;;;7.95;1.67;;;11.20;99.90;;;;;;4997703;28;20059;-84
2023/04/11 06:53:51;;;;;;;2.60;0.90;;;11.40;99.90;;;;;;5001991;28;20261;-85
2023/04/11 06:56:17;;;;;;;4.10;1.05;;;11.60;99.90;;;;;;5005404;28;20314;-87
2023/04/11 06:58:42;;;;;;;5.40;1.10;;;11.80;99.90;;;;;;4998715;28;20017;-84
2023/04/11 07:01:08;;;;;;;2.60;0.87;;;12.10;99.90;;;;;;4992719;28;20071;-87
2023/04/11 07:03:34;;;;;;;4.37;1.17;;;12.30;99.90;;;;;;4992313;28;20313;-85
2023/04/11 07:06:00;;;;;;;5.25;1.48;;;12.50;99.90;;;;;;4981300;28;20021;-86
2023/04/11 07:08:25;;;;;;;4.35;1.10;;;12.80;99.90;;;;;;4982934;28;20013;-85
2023/04/11 07:10:51;;;;;;;3.90;1.13;;;13.10;99.90;;;;;;4987416;28;20055;-86
2023/04/11 07:13:17;;;;;;;5.80;0.90;;;13.40;99.90;;;;;;4979372;28;20027;-84
2023/04/11 07:15:42;;;;;;;5.00;1.35;;;13.60;99.90;;;;;;5020514;28;20017;-86
2023/04/11 07:18:08;;;;;;;3.57;1.03;;;13.90;99.90;;;;;;5011961;28;20284;-86
2023/04/11 07:20:34;;;;;;;5.80;1.02;;;14.10;99.90;;;;;;4982250;28;20248;-86
2023/04/11 07:22:59;;;;;;;5.00;1.10;;;14.30;99.90;;;;;;5004234;28;20025;-87
2023/04/11 07:25:32;;;;;;;6.35;1.17;;;14.60;99.90;;;;;;4992361;28;20680;-87
2023/04/11 07:28:01;;;;;;;5.10;1.08;;;14.90;99.90;;;;;;5019042;28;20013;-85
2023/04/11 07:30:27;;;;;;;3.63;1.03;;;15.20;99.90;;;;;;5013371;28;20036;-85
2023/04/11 07:32:53;;;;;;;3.70;1.05;;;15.60;99.90;;;;;;4993146;28;20063;-85
2023/04/11 07:35:19;;;;;;;3.40;1.23;;;15.90;99.90;;;;;;4983245;28;20403;-87
2023/04/11 07:37:45;;;;;;;3.67;1.30;;;16.10;99.90;;;;;;4971638;28;20131;-85
2023/04/11 07:40:13;;;;;;;4.10;1.00;;;16.30;99.90;;;;;;4993572;28;20028;-85
2023/04/11 07:42:39;;;;;;;3.17;0.95;;;16.50;99.90;;;;;;4989562;28;21139;-85
2023/04/11 07:45:06;;;;;;;5.13;1.00;;;16.60;99.90;;;;;;5031557;28;20013;-85
2023/04/11 07:47:32;;;;;;;5.10;1.02;;;16.60;99.90;;;;;;5003906;28;20017;-85
2023/04/11 07:49:58;;;;;;;7.37;1.33;;;16.80;99.90;;;;;;4993735;28;20020;-88
2023/04/11 07:52:25;;;;;;;4.75;1.20;;;16.90;99.90;;;;;;4977950;28;20056;-88
2023/04/11 07:54:51;;;;;;;3.97;1.00;;;17.10;99.90;;;;;;5003531;28;20769;-86
2023/04/11 07:57:16;;;;;;;3.17;0.93;;;17.40;99.90;;;;;;5023966;28;20021;-85
2023/04/11 07:59:42;;;;;;;3.95;1.20;;;17.60;99.90;;;;;;4980871;28;20653;-86
2023/04/11 08:02:08;;;;;;;4.23;1.13;;;17.90;99.90;;;;;;5010888;28;20075;-85
2023/04/11 08:04:35;;;;;;;4.77;1.00;;;18.20;99.90;;;;;;5004281;28;20021;-86
2023/04/11 08:07:01;;;;;;;4.93;1.20;;;18.50;99.90;;;;;;4987249;28;20017;-87
2023/04/11 08:09:27;;;;;;;4.25;1.02;;;18.90;99.90;;;;;;5017023;28;20043;-85
2023/04/11 08:11:53;;;;;;;3.57;0.90;;;19.20;99.90;;;;;;5009336;28;20512;-85
2023/04/11 08:14:19;;;;;;;4.00;1.20;;;19.30;99.90;;;;;;4976795;28;21237;-85
2023/04/11 08:16:45;;;;;;;3.22;1.13;;;19.40;99.90;;;;;;5007969;28;21440;-83
2023/04/11 08:19:10;;;;;;;3.23;1.00;;;19.50;99.90;;;;;;5002208;28;20749;-84
2023/04/11 08:21:40;;;;;;;4.93;1.03;;;19.50;99.90;;;;;;4983192;28;20477;-84
2023/04/11 08:24:07;;;;;;;4.57;1.10;;;19.60;99.90;;;;;;4999437;28;20152;-86
2023/04/11 08:26:32;;;;;;;4.30;1.08;;;19.70;99.90;;;;;;4974229;28;20029;-87
2023/04/11 08:28:58;;;;;;;5.67;1.20;;;19.90;99.90;;;;;;5007890;28;20053;-84
2023/04/11 08:31:25;;;;;;;5.05;1.10;;;20.20;99.90;;;;;;4986391;28;20043;-85
2023/04/11 08:33:51;;;;;;;3.95;1.00;;;20.50;99.90;;;;;;5005273;28;20016;-85
2023/04/11 08:36:17;;;;;;;2.93;1.00;;;20.70;99.90;;;;;;5000554;28;20512;-86
2023/04/11 08:38:42;;;;;;;3.53;0.95;;;20.90;99.90;;;;;;4970719;28;20597;-86
2023/04/11 08:41:08;;;;;;;3.63;1.00;;;21.00;99.90;;;;;;5024344;28;20020;-83
2023/04/11 08:43:35;;;;;;;2.72;1.13;;;21.20;99.90;;;;;;5006356;28;20029;-86
2023/04/11 08:46:04;;;;;;;1.87;0.80;;;21.30;99.90;;;;;;4998314;28;20028;-85
2023/04/11 08:48:31;;;;;;;2.58;1.02;;;21.30;99.90;;;;;;4981850;28;20494;-85
2023/04/11 08:50:57;;;;;;;5.03;1.30;;;21.30;99.90;;;;;;5027946;28;20099;-86
2023/04/11 08:53:25;;;;;;;3.78;1.10;;;21.20;99.90;;;;;;4985309;28;20013;-85
2023/04/11 08:55:52;;;;;;;3.50;0.95;;;21.10;99.90;;;;;;5019459;28;20048;-84
2023/04/11 08:58:18;;;;;;;3.53;1.00;;;21.20;99.90;;;;;;5006837;28;20513;-86
2023/04/11 09:00:44;;;;;;;2.80;1.10;;;21.30;99.90;;;;;;5012901;28;20806;-87
2023/04/11 09:03:11;;;;;;;2.95;0.90;;;21.50;99.90;;;;;;5004881;28;20020;-85
2023/04/11 09:05:43;;;;;;;4.25;0.90;;;21.60;99.90;;;;;;5004828;28;20076;-84
2023/04/11 09:08:11;;;;;;;4.80;1.20;;;21.60;99.90;;;;;;5031294;28;20482;-84
2023/04/11 09:10:39;;;;;;;3.47;1.00;;;21.70;99.90;;;;;;4983978;28;20257;-87
2023/04/11 09:13:34;;;;;;;3.50;1.10;;;21.80;99.90;;;;;;5005542;28;20076;-86
2023/04/11 09:16:03;;;;;;;4.28;1.10;;;22.10;97.40;;;;;;4977446;28;20033;-83
2023/04/11 09:18:36;;;;;;;1.80;0.90;;;22.10;98.60;;;;;;5026576;28;20032;-85
2023/04/11 09:21:14;;;;;;;3.40;1.10;;;22.00;98.30;;;;;;5002007;28;20024;-85
2023/04/11 09:23:40;;;;;;;3.23;0.97;;;22.00;99.90;;;;;;5004571;28;20021;-85
2023/04/11 09:26:07;;;;;;;2.08;0.80;;;22.00;99.90;;;;;;5006576;28;20021;-86
2023/04/11 09:28:43;;;;;;;4.15;0.90;;;22.20;99.90;;;;;;4977400;28;20041;-87
2023/04/11 09:31:11;;;;;;;3.10;0.90;;;22.40;94.70;;;;;;4996052;28;20116;-84
2023/04/11 09:33:37;;;;;;;3.75;1.10;;;22.50;99.90;;;;;;4973823;28;20132;-86
2023/04/11 09:36:20;;;;;;;2.90;0.73;;;22.80;99.90;;;;;;4990498;28;20005;-85
2023/04/11 09:38:46;;;;;;;2.28;0.80;;;22.90;97.80;;;;;;5026067;28;20055;-89
2023/04/11 09:41:12;;;;;;;2.77;0.90;;;23.00;99.90;;;;;;5005595;28;20025;-85
2023/04/11 09:43:54;;;;;;;2.53;0.90;;;23.20;99.90;;;;;;5002839;28;20348;-86
2023/04/11 09:46:20;;;;;;;3.15;0.80;;;23.40;97.60;;;;;;4993371;28;20032;-85
2023/04/11 09:48:47;;;;;;;1.40;0.65;;;23.60;99.90;;;;;;4993994;28;20029;-86
2023/04/11 09:51:14;;;;;;;2.97;0.88;;;23.70;99.90;;;;;;5007621;28;20060;-87
2023/04/11 09:53:40;;;;;;;2.70;0.93;;;23.90;99.90;;;;;;4985280;28;20026;-84
2023/04/11 09:56:07;;;;;;;3.40;0.77;;;24.10;99.90;;;;;;4986308;28;20090;-87
2023/04/11 09:58:35;;;;;;;1.85;0.85;;;24.20;99.90;;;;;;4979321;28;20016;-86
2023/04/11 10:01:02;;;;;;;2.63;0.80;;;24.30;99.90;;;;;;5002361;28;20147;-85
2023/04/11 10:03:33;;;;;;;1.58;0.90;;;24.30;99.70;;;;;;4999274;28;20033;-87
2023/04/11 10:06:01;;;;;;;3.73;0.97;;;24.30;99.80;;;;;;4987562;28;20239;-87
2023/04/11 10:08:30;;;;;;;2.40;0.90;;;24.30;99.90;;;;;;4986381;28;20075;-87
2023/04/11 10:10:56;;;;;;;3.05;0.88;;;24.40;99.90;;;;;;4980755;28;20093;-84
2023/04/11 10:13:44;;;;;;;2.70;0.80;;;24.60;99.90;;;;;;4991137;28;20013;-85
2023/04/11 10:16:11;;;;;;;2.55;1.08;;;24.70;98.70;;;;;;4996591;28;20980;-86
2023/04/11 10:18:57;;;;;;;3.00;0.93;;;25.00;99.90;;;;;;5014850;28;20048;-85
2023/04/11 10:21:29;;;;;;;3.03;0.90;;;25.20;99.90;;;;;;5005418;28;20112;-88
2023/04/11 10:24:12;;;;;;;3.80;0.95;;;25.50;97.70;;;;;;4994185;28;20496;-86
2023/04/11 10:26:53;;;;;;;2.30;0.88;;;25.70;93.40;;;;;;4984135;28;20445;-85
2023/04/11 10:32:15;;;;;;;2.63;0.90;;;25.80;94.00;;;;;;5018359;28;20043;-86
2023/04/11 10:34:50;;;;;;;3.42;1.02;;;25.60;91.40;;;;;;5009684;28;20720;-85
2023/04/11 10:37:16;;;;;;;2.45;0.95;;;25.20;92.30;;;;;;5004752;28;20033;-86
2023/04/11 10:39:59;;;;;;;1.33;0.77;;;24.90;95.80;;;;;;5005293;28;20397;-86
2023/04/11 10:42:29;;;;;;;1.92;0.88;;;24.50;91.80;;;;;;4992742;28;20090;-86
2023/04/11 10:45:25;;;;;;;2.63;0.80;;;24.20;94.20;;;;;;4984725;28;20031;-86
2023/04/11 10:47:57;;;;;;;3.53;0.85;;;23.90;91.20;;;;;;5006461;28;20103;-86
2023/04/11 10:50:25;;;;;;;2.35;0.90;;;23.80;98.10;;;;;;5001140;28;20039;-86
2023/04/11 10:52:59;;;;;;;3.00;0.98;;;23.70;99.70;;;;;;5021069;28;20017;-85
2023/04/11 10:55:26;;;;;;;3.03;0.88;;;23.80;96.00;;;;;;4996977;28;20478;-85
2023/04/11 10:58:09;;;;;;;4.30;1.00;;;23.90;98.30;;;;;;4965220;28;20525;-85
2023/04/11 11:00:49;;;;;;;4.45;1.02;;;23.90;90.00;;;;;;5028440;28;20051;-88
2023/04/11 11:03:16;;;;;;;2.28;0.88;;;23.90;91.90;;;;;;5015838;28;20058;-85
2023/04/11 11:05:43;;;;;;;1.85;0.90;;;23.90;97.30;;;;;;5003596;28;20045;-86
2023/04/11 11:08:09;;;;;;;1.92;0.80;;;24.10;99.90;;;;;;5019510;28;20329;-90
2023/04/11 11:10:36;;;;;;;2.50;0.93;;;24.30;99.90;;;;;;5018095;28;20029;-86
2023/04/11 11:13:03;;;;;;;4.30;0.82;;;24.70;99.90;;;;;;4998060;28;20799;-90
2023/04/11 11:15:38;;;;;;;2.28;1.10;;;25.00;99.90;;;;;;5026182;28;20013;-83
2023/04/11 11:18:08;;;;;;;3.33;1.13;;;25.30;98.50;;;;;;5026197;28;20368;-85
2023/04/11 11:20:36;;;;;;;3.00;1.30;;;25.40;98.10;;;;;;5001629;28;20063;-87
2023/04/11 11:23:04;;;;;;;3.10;1.07;;;25.40;94.10;;;;;;4977984;28;20475;-87
2023/04/11 11:25:30;;;;;;;4.38;1.02;;;25.20;94.10;;;;;;5011263;28;20055;-84
2023/04/11 11:28:07;;;;;;;3.50;0.90;;;25.00;96.70;;;;;;4983062;28;20403;-86
2023/04/11 11:30:35;;;;;;;3.25;1.20;;;25.10;93.70;;;;;;5012314;28;20082;-87
2023/04/11 11:33:18;;;;;;;2.42;1.02;;;25.20;99.30;;;;;;4989312;28;20012;-85
2023/04/11 11:35:57;;;;;;;2.17;1.00;;;25.40;94.00;;;;;;5008817;28;20320;-85
2023/04/11 11:38:25;;;;;;;2.13;0.90;;;25.50;94.80;;;;;;4996135;28;20367;-84
2023/04/11 11:40:52;;;;;;;2.33;0.82;;;25.40;94.10;;;;;;4998824;28;20024;-86
2023/04/11 11:43:18;;;;;;;3.03;1.00;;;25.10;94.00;;;;;;4977294;28;20090;-85
2023/04/11 11:45:44;;;;;;;2.73;1.10;;;24.80;93.90;;;;;;5018511;28;20042;-84
2023/04/11 11:48:23;;;;;;;2.65;1.00;;;24.40;94.70;;;;;;5006655;28;20537;-84
2023/04/11 11:50:56;;;;;;;2.53;1.00;;;24.20;86.10;;;;;;5008806;28;20037;-87
2023/04/11 11:53:23;;;;;;;4.40;1.00;;;23.80;87.80;;;;;;4981640;28;20221;-86
2023/04/11 11:55:50;;;;;;;2.92;1.00;;;23.60;92.20;;;;;;5004546;28;20443;-86
2023/04/11 11:58:18;;;;;;;2.77;1.00;;;23.40;92.60;;;;;;5013542;28;20945;-85
2023/04/11 12:00:47;;;;;;;3.30;1.17;;;23.10;93.00;;;;;;5019142;28;20017;-84
2023/04/11 12:03:17;;;;;;;3.55;0.95;;;22.80;92.40;;;;;;5004413;28;20037;-85
2023/04/11 12:05:43;;;;;;;4.20;1.05;;;22.50;93.10;;;;;;4995352;28;20423;-84
2023/04/11 12:08:09;;;;;;;3.25;1.10;;;22.30;94.20;;;;;;5029139;28;20055;-85
2023/04/11 12:10:41;;;;;;;2.30;1.00;;;22.10;94.10;;;;;;4990100;28;21903;-83
2023/04/11 12:13:15;;;;;;;4.00;1.10;;;21.70;92.40;;;;;;5010313;28;20108;-85
2023/04/11 12:15:52;;;;;;;1.27;0.90;;;21.50;92.40;;;;;;4989286;28;20235;-84
2023/04/11 12:18:26;;;;;;;3.63;0.90;;;21.30;92.90;;;;;;4991794;28;20106;-85
2023/04/11 12:20:52;;;;;;;2.30;0.90;;;21.10;93.30;;;;;;5006362;28;20785;-84
2023/04/11 12:23:19;;;;;;;2.20;0.97;;;20.90;95.60;;;;;;5005518;28;20017;-85
2023/04/11 12:25:45;;;;;;;3.75;1.00;;;20.70;96.90;;;;;;4988059;28;20106;-85
2023/04/11 12:28:11;;;;;;;2.97;0.95;;;20.80;99.70;;;;;;5002521;28;20020;-87
2023/04/11 12:30:37;;;;;;;2.65;1.00;;;21.00;99.90;;;;;;4964881;28;20611;-85
2023/04/11 12:33:04;;;;;;;3.57;1.10;;;21.40;99.90;;;;;;5026547;28;20021;-85
2023/04/11 12:35:30;;;;;;;1.77;0.90;;;21.80;99.90;;;;;;5011416;28;20030;-86
2023/04/11 12:37:55;;;;;;;2.70;0.95;;;22.00;99.90;;;;;;5010326;28;20424;-87
2023/04/11 12:40:22;;;;;;;1.77;1.00;;;22.10;98.80;;;;;;5013794;28;20074;-84
2023/04/11 12:42:48;;;;;;;3.45;1.00;;;22.10;98.20;;;;;;5014818;28;20022;-85
2023/04/11 12:45:17;;;;;;;3.50;1.00;;;22.10;99.00;;;;;;5002508;28;20262;-85
2023/04/11 12:47:43;;;;;;;2.38;0.90;;;22.10;99.80;;;;;;5020943;28;20568;-85
2023/04/11 12:50:09;;;;;;;1.70;0.80;;;22.40;99.90;;;;;;5021117;28;20211;-87
2023/04/11 12:52:35;;;;;;;4.78;1.10;;;22.60;99.90;;;;;;5025828;28;20478;-84